Time;durP1;ratioP1;P1;durP2;ratioP2;P2;SDS_P1;SDS_P2;PMS_P1;PMS_P2;Temp;Humidity;BMP_temperature;BMP_pressure;BME280_temperature;BME280_humidity;BME280_pressure;Samples;Min_cycle;Max_cycle;Signal;HPM_P1;HPM_P2
2022/04/29 00:01:03;;;;;;;;;;;;;;;4.76;100.00;102418.97;5049227;28;19931;-78
2022/04/29 00:03:36;;;;;;;;;;;;;;;4.77;100.00;102412.56;5050088;28;19920;-78
2022/04/29 00:06:09;;;;;;;;;;;;;;;4.75;100.00;102414.59;5055461;28;19928;-78
2022/04/29 00:08:37;;;;;;;;;;;;;;;4.73;100.00;102420.19;5050225;28;19936;-78
2022/04/29 00:11:06;;;;;;;;;;;;;;;4.69;100.00;102421.63;5062256;28;19931;-78
2022/04/29 00:13:34;;;;;;;;;;;;;;;4.66;100.00;102415.81;5047937;28;20308;-78
2022/04/29 00:16:08;;;;;;;;;;;;;;;4.55;100.00;102417.19;5049476;28;19948;-78
2022/04/29 00:18:37;;;;;;;;;;;;;;;4.62;100.00;102417.22;5043828;28;19928;-78
2022/04/29 00:21:10;;;;;;;;;;;;;;;4.57;100.00;102415.09;5053018;28;19932;-78
2022/04/29 00:23:42;;;;;;;;;;;;;;;4.58;100.00;102400.59;5043952;28;19925;-77
2022/04/29 00:26:15;;;;;;;;;;;;;;;4.58;100.00;102408.69;5055086;28;19927;-78
2022/04/29 00:28:48;;;;;;;;;;;;;;;4.47;100.00;102409.25;5049016;28;19927;-78
2022/04/29 00:31:23;;;;;;;;;;;;;;;4.38;100.00;102400.47;5060925;28;19928;-77
2022/04/29 00:33:51;;;;;;;;;;;;;;;4.43;100.00;102398.84;5044935;28;19940;-78
2022/04/29 00:36:24;;;;;;;;;;;;;;;4.28;100.00;102399.97;5047452;28;19935;-78
2022/04/29 00:38:57;;;;;;;;;;;;;;;4.21;100.00;102419.63;5040569;28;19925;-78
2022/04/29 00:41:25;;;;;;;;;;;;;;;4.20;100.00;102412.56;5043720;28;19932;-78
2022/04/29 00:44:02;;;;;;;;;;;;;;;4.30;100.00;102408.69;5057382;28;19928;-78
2022/04/29 00:46:36;;;;;;;;;;;;;;;4.34;100.00;102410.81;5048653;28;19924;-78
2022/04/29 00:49:06;;;;;;;;;;;;;;;4.28;100.00;102410.75;5063191;28;19921;-78
2022/04/29 00:51:39;;;;;;;;;;;;;;;4.29;100.00;102412.41;5049902;28;19921;-78
2022/04/29 00:54:14;;;;;;;;;;;;;;;4.34;100.00;102409.97;5048401;28;19925;-79
2022/04/29 00:56:48;;;;;;;;;;;;;;;4.36;100.00;102405.22;5045799;28;19924;-79
2022/04/29 00:59:25;;;;;;;;;;;;;;;4.37;100.00;102402.31;5050226;28;19925;-78
2022/04/29 01:02:01;;;;;;;;;;;;;;;4.40;100.00;102409.19;5045667;28;19925;-78
2022/04/29 01:04:37;;;;;;;;;;;;;;;4.35;100.00;102409.78;5040738;28;19936;-78
2022/04/29 01:07:05;;;;;;;;;;;;;;;4.33;100.00;102401.03;5065811;28;19925;-78
2022/04/29 01:09:38;;;;;;;;;;;;;;;4.32;100.00;102402.06;5044924;28;19921;-78
2022/04/29 01:12:11;;;;;;;;;;;;;;;4.31;100.00;102396.88;5045986;28;19936;-78
2022/04/29 01:14:44;;;;;;;;;;;;;;;4.34;100.00;102394.63;5052640;28;20376;-77
2022/04/29 01:17:18;;;;;;;;;;;;;;;4.33;100.00;102398.34;5046991;28;19932;-78
2022/04/29 01:19:51;;;;;;;;;;;;;;;4.31;100.00;102397.72;5045620;28;19928;-78
2022/04/29 01:22:26;;;;;;;;;;;;;;;4.34;100.00;102399.19;5057637;28;20242;-78
2022/04/29 01:24:59;;;;;;;;;;;;;;;4.26;100.00;102387.50;5062984;28;19928;-78
2022/04/29 01:27:33;;;;;;;;;;;;;;;4.26;100.00;102386.69;5070543;28;19924;-78
2022/04/29 01:30:08;;;;;;;;;;;;;;;4.26;100.00;102386.69;5071142;28;20369;-78
2022/04/29 01:32:42;;;;;;;;;;;;;;;4.24;100.00;102380.69;5068849;28;20067;-78
2022/04/29 01:35:10;;;;;;;;;;;;;;;4.19;100.00;102378.56;5065689;28;19951;-78
2022/04/29 01:37:45;;;;;;;;;;;;;;;4.12;100.00;102380.38;5055176;28;20288;-78
2022/04/29 01:40:13;;;;;;;;;;;;;;;4.15;100.00;102384.53;5051152;28;19925;-78
2022/04/29 01:42:46;;;;;;;;;;;;;;;4.11;100.00;102381.38;5051940;28;19920;-78
2022/04/29 01:45:19;;;;;;;;;;;;;;;4.14;100.00;102380.16;5060124;28;19928;-78
2022/04/29 01:48:10;;;;;;;;;;;;;;;4.07;100.00;102389.03;5071770;28;19924;-78
2022/04/29 01:51:11;;;;;;;;;;;;;;;4.06;100.00;102383.81;5069780;28;20365;-77
2022/04/29 01:53:53;;;;;;;;;;;;;;;4.03;100.00;102395.00;5070912;28;19924;-78
2022/04/29 01:56:33;;;;;;;;;;;;;;;3.96;100.00;102386.03;5051634;28;19920;-78
2022/04/29 01:59:09;;;;;;;;;;;;;;;3.91;100.00;102384.75;5047147;28;19921;-77
2022/04/29 02:01:53;;;;;;;;;;;;;;;3.91;100.00;102379.34;5030870;28;19925;-78
2022/04/29 02:04:20;;;;;;;;;;;;;;;3.85;100.00;102374.75;5030910;28;19928;-77
2022/04/29 02:06:48;;;;;;;;;;;;;;;3.74;100.00;102368.03;5031591;28;19920;-78
2022/04/29 02:09:23;;;;;;;;;;;;;;;3.57;100.00;102369.28;5069517;28;19927;-78
2022/04/29 02:14:52;;;;;;;;;;;;;;;3.66;100.00;102372.69;5072559;28;19920;-77
2022/04/29 02:17:31;;;;;;;;;;;;;;;3.61;100.00;102380.50;5069922;28;19927;-79
2022/04/29 02:20:05;;;;;;;;;;;;;;;3.57;100.00;102380.88;5070802;28;19920;-79
2022/04/29 02:22:40;;;;;;;;;;;;;;;3.69;100.00;102375.84;5070123;28;19920;-79
2022/04/29 02:25:14;;;;;;;;;;;;;;;3.72;100.00;102369.22;5064893;28;19936;-77
2022/04/29 02:27:47;;;;;;;;;;;;;;;3.77;100.00;102372.19;5050091;28;19921;-78
2022/04/29 02:30:20;;;;;;;;;;;;;;;3.78;100.00;102368.44;5051103;28;19925;-78
2022/04/29 02:32:53;;;;;;;;;;;;;;;3.72;100.00;102363.84;5050361;28;20377;-78
2022/04/29 02:35:26;;;;;;;;;;;;;;;3.76;100.00;102362.44;5058163;28;19931;-78
2022/04/29 02:37:59;;;;;;;;;;;;;;;3.73;100.00;102366.34;5069843;28;19928;-78
2022/04/29 02:40:33;;;;;;;;;;;;;;;3.78;100.00;102368.44;5065037;28;19921;-78
2022/04/29 02:43:08;;;;;;;;;;;;;;;3.79;100.00;102369.31;5051298;28;19920;-78
2022/04/29 02:45:41;;;;;;;;;;;;;;;3.80;100.00;102369.09;5052770;28;20397;-78
2022/04/29 02:48:15;;;;;;;;;;;;;;;3.72;100.00;102372.75;5050165;28;19920;-78
2022/04/29 02:50:47;;;;;;;;;;;;;;;3.71;100.00;102362.16;5050820;28;19927;-78
2022/04/29 02:53:20;;;;;;;;;;;;;;;3.76;100.00;102362.44;5050173;28;19924;-79
2022/04/29 02:55:50;;;;;;;;;;;;;;;3.75;100.00;102364.28;5051820;28;19924;-79
2022/04/29 02:58:53;;;;;;;;;;;;;;;3.68;100.00;102367.94;5053336;28;20658;-78
2022/04/29 03:01:26;;;;;;;;;;;;;;;3.74;100.00;102364.47;5055024;28;19924;-77
2022/04/29 03:03:59;;;;;;;;;;;;;;;3.71;100.00;102357.59;5054171;28;19924;-78
2022/04/29 03:06:32;;;;;;;;;;;;;;;3.76;100.00;102354.34;5054033;28;19920;-78
2022/04/29 03:09:05;;;;;;;;;;;;;;;3.74;100.00;102353.69;5049977;28;20574;-78
2022/04/29 03:11:40;;;;;;;;;;;;;;;3.70;100.00;102358.66;5050516;28;19925;-78
2022/04/29 03:14:13;;;;;;;;;;;;;;;3.78;100.00;102346.09;5067681;28;19924;-77
2022/04/29 03:16:47;;;;;;;;;;;;;;;3.65;100.00;102344.09;5064248;28;19928;-78
2022/04/29 03:19:20;;;;;;;;;;;;;;;3.58;100.00;102342.16;5053501;28;19927;-78
2022/04/29 03:21:53;;;;;;;;;;;;;;;3.56;100.00;102346.06;5053526;28;19987;-77
2022/04/29 03:24:26;;;;;;;;;;;;;;;3.58;100.00;102352.13;5055252;28;19924;-78
2022/04/29 03:27:00;;;;;;;;;;;;;;;3.53;100.00;102351.84;5053352;28;19932;-78
2022/04/29 03:29:29;;;;;;;;;;;;;;;3.60;100.00;102344.66;5054272;28;19924;-77
2022/04/29 03:31:57;;;;;;;;;;;;;;;3.52;100.00;102348.34;5062420;28;19921;-78
2022/04/29 03:34:52;;;;;;;;;;;;;;;3.50;100.00;102347.69;5034788;28;19921;-78
2022/04/29 03:37:25;;;;;;;;;;;;;;;3.48;100.00;102343.50;5034466;28;19928;-77
2022/04/29 03:39:58;;;;;;;;;;;;;;;3.44;100.00;102336.84;5039839;28;19932;-78
2022/04/29 03:42:33;;;;;;;;;;;;;;;3.42;100.00;102330.81;5079866;28;19924;-77
2022/04/29 03:45:02;;;;;;;;;;;;;;;3.38;100.00;102330.34;5053438;28;19924;-78
2022/04/29 03:47:35;;;;;;;;;;;;;;;3.33;100.00;102330.09;5063437;28;19920;-77
2022/04/29 03:50:23;;;;;;;;;;;;;;;3.44;100.00;102329.63;5061791;28;19928;-78
2022/04/29 03:53:09;;;;;;;;;;;;;;;3.51;100.00;102329.69;5071459;28;19931;-78
2022/04/29 03:55:50;;;;;;;;;;;;;;;3.55;100.00;102342.56;5050259;28;19928;-77
2022/04/29 03:58:25;;;;;;;;;;;;;;;3.55;100.00;102339.88;5060429;28;19929;-78
2022/04/29 04:00:58;;;;;;;;;;;;;;;3.63;100.00;102344.28;5048034;28;19924;-78
2022/04/29 04:03:35;;;;;;;;;;;;;;;3.55;100.00;102339.88;5080157;28;19928;-78
2022/04/29 04:08:59;;;;;;;;;;;;;;;3.63;100.00;102338.88;5042501;28;19921;-77
2022/04/29 04:11:33;;;;;;;;;;;;;;;3.49;100.00;102329.03;5043323;28;19920;-77
2022/04/29 04:14:02;;;;;;;;;;;;;;;3.60;100.00;102328.50;5053901;28;20308;-77
2022/04/29 04:16:45;;;;;;;;;;;;;;;3.59;100.00;102334.94;5077936;28;19921;-77
2022/04/29 04:19:18;;;;;;;;;;;;;;;3.63;100.00;102340.75;5053358;28;19944;-78
2022/04/29 04:21:46;;;;;;;;;;;;;;;3.52;100.00;102334.88;5062692;28;19974;-78
2022/04/29 04:24:19;;;;;;;;;;;;;;;3.63;100.00;102335.38;5046814;28;19924;-78
2022/04/29 04:26:47;;;;;;;;;;;;;;;3.63;100.00;102330.00;5062107;28;19932;-77
2022/04/29 04:29:22;;;;;;;;;;;;;;;3.69;100.00;102337.31;5043895;28;19920;-78
2022/04/29 04:31:55;;;;;;;;;;;;;;;3.68;100.00;102335.63;5045434;28;19925;-77
2022/04/29 04:37:19;;;;;;;;;;;;;;;3.77;100.00;102350.66;5041676;28;20377;-79
2022/04/29 04:39:59;;;;;;;;;;;;;;;3.90;100.00;102339.97;5051343;28;20601;-79
2022/04/29 04:42:44;;;;;;;;;;;;;;;3.84;100.00;102343.44;5047438;28;19928;-78
2022/04/29 04:45:30;;;;;;;;;;;;;;;4.00;100.00;102338.81;5061014;28;19924;-78
2022/04/29 04:48:28;;;;;;;;;;;;;;;3.99;100.00;102346.06;5067051;28;19939;-78
2022/04/29 04:51:07;;;;;;;;;;;;;;;4.06;100.00;102348.78;5049777;28;19929;-78
2022/04/29 04:53:39;;;;;;;;;;;;;;;4.08;100.00;102341.38;5049499;28;19929;-77
2022/04/29 04:56:07;;;;;;;;;;;;;;;4.06;100.00;102346.09;5048698;28;20285;-78
2022/04/29 04:58:41;;;;;;;;;;;;;;;4.08;100.00;102357.53;5039885;28;19927;-77
2022/04/29 05:01:15;;;;;;;;;;;;;;;4.28;100.00;102354.16;5044136;28;20526;-77
2022/04/29 05:04:23;;;;;;;;;;;;;;;4.55;100.00;102355.97;5068464;28;19920;-79
2022/04/29 05:07:34;;;;;;;;;;;;;;;4.81;100.00;102365.28;5038452;28;19925;-78
2022/04/29 05:10:08;;;;;;;;;;;;;;;4.94;100.00;102357.25;5048733;28;19924;-77
2022/04/29 05:12:42;;;;;;;;;;;;;;;5.11;100.00;102363.13;5045785;28;19927;-78
2022/04/29 05:15:29;;;;;;;;;;;;;;;4.85;100.00;102373.81;5048797;28;19928;-78
2022/04/29 05:18:05;;;;;;;;;;;;;;;4.88;100.00;102368.00;5051770;28;19928;-78
2022/04/29 05:20:52;;;;;;;;;;;;;;;4.82;100.00;102366.09;5040289;28;19936;-78
2022/04/29 05:23:24;;;;;;;;;;;;;;;4.76;100.00;102365.03;5042902;28;19925;-78
2022/04/29 05:26:36;;;;;;;;;;;;;;;4.76;100.00;102371.28;5048740;28;19920;-78
2022/04/29 05:29:34;;;;;;;;;;;;;;;4.78;100.00;102365.69;5041599;28;19929;-77
2022/04/29 05:32:34;;;;;;;;;;;;;;;4.80;100.00;102363.59;5047877;28;20460;-77
2022/04/29 05:35:39;;;;;;;;;;;;;;;4.74;100.00;102365.22;5029418;28;19924;-78
2022/04/29 05:43:58;;;;;;;;;;;;;;;5.19;100.00;102362.13;5044534;28;19932;-78
2022/04/29 05:46:26;;;;;;;;;;;;;;;5.38;100.00;102367.78;5045370;28;19928;-77
2022/04/29 05:48:54;;;;;;;;;;;;;;;5.38;100.00;102370.47;5049452;28;20687;-79
2022/04/29 05:51:28;;;;;;;;;;;;;;;5.24;100.00;102367.72;5042521;28;20360;-79
2022/04/29 05:54:02;;;;;;;;;;;;;;;5.22;100.00;102366.25;5040200;28;19928;-78
2022/04/29 05:56:35;;;;;;;;;;;;;;;5.14;100.00;102366.44;5039138;28;19925;-77
2022/04/29 05:59:12;;;;;;;;;;;;;;;5.41;100.00;102372.75;5043090;28;19921;-77
2022/04/29 06:02:04;;;;;;;;;;;;;;;5.57;100.00;102367.00;5045034;28;20415;-77
2022/04/29 06:04:45;;;;;;;;;;;;;;;5.73;100.00;102371.19;5044682;28;19932;-78
2022/04/29 06:07:20;;;;;;;;;;;;;;;5.75;100.00;102365.56;5047844;28;19931;-78
2022/04/29 06:09:49;;;;;;;;;;;;;;;5.69;100.00;102364.53;5044000;28;19936;-78
2022/04/29 06:12:22;;;;;;;;;;;;;;;5.76;100.00;102369.94;5042096;28;19928;-78
2022/04/29 06:14:57;;;;;;;;;;;;;;;5.78;100.00;102371.38;5070825;28;19921;-76
2022/04/29 06:17:48;;;;;;;;;;;;;;;6.03;100.00;102370.81;5049881;28;19925;-79
2022/04/29 06:20:35;;;;;;;;;;;;;;;6.22;100.00;102361.03;5048039;28;19925;-78
2022/04/29 06:23:28;;;;;;;;;;;;;;;6.23;100.00;102364.59;5051306;28;19925;-80
2022/04/29 06:26:03;;;;;;;;;;;;;;;6.06;100.00;102365.00;5044403;28;19925;-78
2022/04/29 06:28:36;;;;;;;;;;;;;;;6.12;100.00;102360.63;5047797;28;19943;-79
2022/04/29 06:31:11;;;;;;;;;;;;;;;5.82;100.00;102368.28;5049519;28;19925;-76
2022/04/29 06:34:04;;;;;;;;;;;;;;;5.73;100.00;102367.63;5044890;28;19928;-77
2022/04/29 06:36:32;;;;;;;;;;;;;;;6.03;100.00;102364.56;5053777;28;20261;-78
2022/04/29 06:39:08;;;;;;;;;;;;;;;5.99;100.00;102374.97;5050262;28;19924;-77
2022/04/29 06:42:00;;;;;;;;;;;;;;;6.02;100.00;102376.44;5056238;28;19921;-79
2022/04/29 06:44:48;;;;;;;;;;;;;;;6.11;100.00;102373.31;5072788;28;19924;-86
2022/04/29 06:47:39;;;;;;;;;;;;;;;6.28;100.00;102375.59;5063401;28;19924;-77
2022/04/29 06:50:32;;;;;;;;;;;;;;;6.27;100.00;102372.06;5045889;28;19924;-77
2022/04/29 06:53:36;;;;;;;;;;;;;;;6.55;100.00;102375.56;5044941;28;19928;-77
2022/04/29 06:56:11;;;;;;;;;;;;;;;7.02;100.00;102378.97;5050172;28;19936;-77
2022/04/29 06:58:39;;;;;;;;;;;;;;;6.86;100.00;102380.25;5083029;28;20392;-77
2022/04/29 07:01:08;;;;;;;;;;;;;;;7.06;100.00;102377.50;5061483;28;19935;-77
2022/04/29 07:03:41;;;;;;;;;;;;;;;7.06;100.00;102373.97;5062132;28;19928;-78
2022/04/29 07:06:14;;;;;;;;;;;;;;;7.06;100.00;102382.91;5041470;28;19944;-77
2022/04/29 07:08:47;;;;;;;;;;;;;;;6.91;100.00;102376.94;5049347;28;19921;-78
2022/04/29 07:11:40;;;;;;;;;;;;;;;6.86;100.00;102382.16;5057989;28;20364;-78
2022/04/29 07:14:27;;;;;;;;;;;;;;;7.30;100.00;102380.50;5068989;28;19921;-77
2022/04/29 07:17:10;;;;;;;;;;;;;;;7.26;100.00;102374.69;5044073;28;19928;-79
2022/04/29 07:19:49;;;;;;;;;;;;;;;7.40;100.00;102370.06;5030312;28;19929;-77
2022/04/29 07:22:18;;;;;;;;;;;;;;;7.86;100.00;102375.38;5034312;28;19929;-78
2022/04/29 07:24:46;;;;;;;;;;;;;;;7.81;100.00;102367.91;5035755;28;19984;-77
2022/04/29 07:27:21;;;;;;;;;;;;;;;8.04;100.00;102363.75;5035710;28;19943;-78
2022/04/29 07:29:54;;;;;;;;;;;;;;;8.20;100.00;102365.09;5037217;28;19929;-77
2022/04/29 07:32:38;;;;;;;;;;;;;;;8.02;100.00;102363.16;5032293;28;19935;-76
2022/04/29 07:44:07;;;;;;;;;;;;;;;8.77;100.00;102362.25;5038635;28;19928;-79
2022/04/29 07:46:43;;;;;;;;;;;;;;;8.81;100.00;102358.88;5022387;28;19936;-79
2022/04/29 07:49:31;;;;;;;;;;;;;;;8.94;100.00;102363.31;5027314;28;19940;-80
2022/04/29 07:52:05;;;;;;;;;;;;;;;8.87;100.00;102357.13;5029564;28;19928;-78
2022/04/29 07:54:38;;;;;;;;;;;;;;;9.02;100.00;102351.31;5039282;28;19935;-77
2022/04/29 07:57:10;;;;;;;;;;;;;;;9.22;100.00;102351.03;5028802;28;19929;-79
2022/04/29 07:59:45;;;;;;;;;;;;;;;9.14;100.00;102344.06;5025445;28;20301;-78
2022/04/29 08:02:21;;;;;;;;;;;;;;;9.09;100.00;102349.34;5023538;28;19936;-77
2022/04/29 08:04:54;;;;;;;;;;;;;;;9.03;100.00;102342.09;5017451;28;19935;-79
2022/04/29 08:07:28;;;;;;;;;;;;;;;9.47;100.00;102344.66;5017748;28;20549;-79
2022/04/29 08:10:03;;;;;;;;;;;;;;;9.65;100.00;102341.03;5037902;28;19975;-78
2022/04/29 08:12:37;;;;;;;;;;;;;;;9.65;100.00;102339.16;5019873;28;19928;-79
2022/04/29 08:15:31;;;;;;;;;;;;;;;9.82;100.00;102341.22;5030709;28;19928;-79
2022/04/29 08:18:12;;;;;;;;;;;;;;;9.74;100.00;102345.06;5025124;28;20325;-79
2022/04/29 08:20:46;;;;;;;;;;;;;;;10.02;100.00;102343.56;5015610;28;19939;-79
2022/04/29 08:23:19;;;;;;;;;;;;;;;9.94;100.00;102349.38;5016736;28;19928;-78
2022/04/29 08:25:52;;;;;;;;;;;;;;;10.18;100.00;102337.44;5024575;28;19935;-78
2022/04/29 08:28:23;;;;;;;;;;;;;;;9.99;100.00;102338.63;5023444;28;19928;-77
2022/04/29 08:30:58;;;;;;;;;;;;;;;10.42;100.00;102347.53;5024567;28;19940;-79
2022/04/29 08:33:48;;;;;;;;;;;;;;;10.09;100.00;102340.75;5019283;28;19929;-78
2022/04/29 08:36:21;;;;;;;;;;;;;;;10.37;100.00;102332.75;5017257;28;19928;-78
2022/04/29 08:38:55;;;;;;;;;;;;;;;10.18;100.00;102342.88;5021100;28;19928;-77
2022/04/29 08:41:29;;;;;;;;;;;;;;;10.36;100.00;102344.69;5022509;28;19928;-78
2022/04/29 08:44:03;;;;;;;;;;;;;;;10.41;100.00;102343.97;5017034;28;20701;-80
2022/04/29 08:46:47;;;;;;;;;;;;;;;10.34;100.00;102333.22;5020986;28;19929;-77
2022/04/29 08:49:40;;;;;;;;;;;;;;;10.61;100.00;102334.63;5014034;28;20634;-78
2022/04/29 08:52:14;;;;;;;;;;;;;;;10.45;100.00;102333.44;5015657;28;19928;-78
2022/04/29 09:00:30;;;;;;;;;;;;;;;10.76;100.00;102326.75;5022889;28;19935;-78
2022/04/29 09:03:04;;;;;;;;;;;;;;;10.58;100.00;102318.72;5028522;28;20597;-77
2022/04/29 09:05:39;;;;;;;;;;;;;;;10.66;100.00;102324.66;5014544;28;19950;-77
2022/04/29 09:08:12;;;;;;;;;;;;;;;10.32;100.00;102326.31;5018756;28;20313;-78
2022/04/29 09:10:49;;;;;;;;;;;;;;;10.07;100.00;102331.97;5029084;28;19935;-77
2022/04/29 09:13:24;;;;;;;;;;;;;;;10.34;100.00;102319.63;5017785;28;19928;-78
2022/04/29 09:15:59;;;;;;;;;;;;;;;10.40;100.00;102317.84;5019211;28;19925;-82
2022/04/29 09:18:37;;;;;;;;;;;;;;;10.63;100.00;102324.28;5018533;28;19928;-78
2022/04/29 09:21:10;;;;;;;;;;;;;;;10.64;100.00;102325.97;5019536;28;20490;-77
2022/04/29 09:23:44;;;;;;;;;;;;;;;10.48;100.00;102333.81;5023097;28;19929;-78
2022/04/29 09:26:37;;;;;;;;;;;;;;;10.19;100.00;102336.38;5031326;28;19925;-78
2022/04/29 09:29:17;;;;;;;;;;;;;;;10.15;100.00;102331.63;5018797;28;21161;-77
2022/04/29 09:32:05;;;;;;;;;;;;;;;10.17;100.00;102333.06;5016840;28;19928;-79
2022/04/29 09:34:55;;;;;;;;;;;;;;;10.07;100.00;102334.69;5018930;28;19928;-79
2022/04/29 09:37:24;;;;;;;;;;;;;;;10.55;100.00;102336.41;5018874;28;20369;-79
2022/04/29 09:40:05;;;;;;;;;;;;;;;10.66;100.00;102326.53;5018665;28;19932;-76
2022/04/29 09:42:37;;;;;;;;;;;;;;;11.01;100.00;102317.47;5025327;28;19936;-77
2022/04/29 09:45:12;;;;;;;;;;;;;;;11.00;100.00;102324.78;5027191;28;19929;-77
2022/04/29 09:47:45;;;;;;;;;;;;;;;11.01;100.00;102323.72;5048912;28;19929;-78
2022/04/29 09:50:16;;;;;;;;;;;;;;;10.65;100.00;102317.53;5025179;28;19940;-77
2022/04/29 09:52:45;;;;;;;;;;;;;;;10.92;100.00;102318.91;5024939;28;20388;-76
2022/04/29 09:55:14;;;;;;;;;;;;;;;10.77;100.00;102317.53;5018567;28;19929;-79
2022/04/29 09:57:47;;;;;;;;;;;;;;;11.21;100.00;102315.13;5017407;28;19929;-78
2022/04/29 10:00:20;;;;;;;;;;;;;;;10.79;100.00;102318.09;5021395;28;19944;-78
2022/04/29 10:02:53;;;;;;;;;;;;;;;11.05;100.00;102311.28;5023313;28;19929;-78
2022/04/29 10:05:27;;;;;;;;;;;;;;;11.30;100.00;102310.09;5017168;28;19959;-78
2022/04/29 10:08:02;;;;;;;;;;;;;;;11.62;100.00;102311.47;5055044;28;19929;-77
2022/04/29 10:10:31;;;;;;;;;;;;;;;11.44;100.00;102309.81;5025446;28;19929;-78
2022/04/29 10:13:07;;;;;;;;;;;;;;;11.22;100.00;102310.50;5019255;28;19929;-78
2022/04/29 10:15:53;;;;;;;;;;;;;;;11.61;100.00;102307.91;5021756;28;19929;-79
2022/04/29 10:22:03;;;;;;;;;;;;;;;11.80;100.00;102296.75;5033102;28;19924;-78
2022/04/29 10:24:36;;;;;;;;;;;;;;;11.81;100.00;102293.78;5017928;28;19936;-79
2022/04/29 10:27:04;;;;;;;;;;;;;;;11.90;100.00;102292.31;5022262;28;19940;-78
2022/04/29 10:29:32;;;;;;;;;;;;;;;12.22;100.00;102296.31;5024178;28;20309;-79
2022/04/29 10:32:06;;;;;;;;;;;;;;;12.11;100.00;102291.78;5025688;28;19932;-77
2022/04/29 10:34:39;;;;;;;;;;;;;;;12.17;100.00;102299.00;5024532;28;19936;-78
2022/04/29 10:37:14;;;;;;;;;;;;;;;12.15;100.00;102295.69;5027318;28;19952;-79
2022/04/29 10:40:02;;;;;;;;;;;;;;;11.71;99.23;102297.19;5023696;28;20300;-79
2022/04/29 10:43:03;;;;;;;;;;;;;;;11.86;100.00;102290.31;5018551;28;20746;-78
2022/04/29 10:45:48;;;;;;;;;;;;;;;12.11;100.00;102287.19;5029661;28;19929;-79
2022/04/29 10:48:33;;;;;;;;;;;;;;;12.38;100.00;102287.25;5018748;28;20733;-79
2022/04/29 10:51:39;;;;;;;;;;;;;;;12.60;100.00;102281.00;5033801;28;19928;-77
2022/04/29 10:54:53;;;;;;;;;;;;;;;12.18;93.28;102279.63;5024407;28;20537;-77
2022/04/29 10:57:50;;;;;;;;;;;;;;;12.21;88.39;102286.50;5006689;28;19929;-77
2022/04/29 11:00:27;;;;;;;;;;;;;;;12.28;86.52;102269.91;5022716;28;19929;-78
2022/04/29 11:03:22;;;;;;;;;;;;;;;12.72;91.46;102270.75;5026036;28;19928;-78
2022/04/29 11:06:06;;;;;;;;;;;;;;;12.82;88.81;102271.97;5018224;28;19936;-77
2022/04/29 11:08:39;;;;;;;;;;;;;;;12.69;83.58;102273.16;5021901;28;22070;-78
2022/04/29 11:11:13;;;;;;;;;;;;;;;12.56;81.52;102268.94;5018158;28;19928;-78
2022/04/29 11:14:05;;;;;;;;;;;;;;;12.69;85.37;102259.50;5025760;28;21472;-77
2022/04/29 11:17:10;;;;;;;;;;;;;;;12.81;73.25;102262.94;5022585;28;19936;-78
2022/04/29 11:19:50;;;;;;;;;;;;;;;13.01;67.82;102256.88;5026392;28;20387;-77
2022/04/29 11:25:11;;;;;;;;;;;;;;;12.79;75.28;102256.91;5020052;28;19930;-77
2022/04/29 11:28:05;;;;;;;;;;;;;;;13.00;77.06;102251.69;5026241;28;19928;-77
2022/04/29 11:31:15;;;;;;;;;;;;;;;12.96;80.20;102245.88;5016585;28;19924;-78
2022/04/29 11:33:48;;;;;;;;;;;;;;;13.02;74.78;102247.59;5029117;28;19928;-78
2022/04/29 11:36:21;;;;;;;;;;;;;;;12.87;73.90;102240.06;5025504;28;19975;-76
2022/04/29 11:38:54;;;;;;;;;;;;;;;12.96;84.03;102254.09;5032159;28;19925;-77
2022/04/29 11:41:28;;;;;;;;;;;;;;;12.78;72.82;102246.25;5023432;28;20408;-79
2022/04/29 11:44:02;;;;;;;;;;;;;;;12.76;84.90;102260.16;5031612;28;19925;-77
2022/04/29 11:46:49;;;;;;;;;;;;;;;12.89;81.37;102248.00;5025448;28;19928;-78
2022/04/29 11:49:27;;;;;;;;;;;;;;;13.17;83.00;102241.44;5019324;28;19936;-76
2022/04/29 11:52:20;;;;;;;;;;;;;;;13.02;70.29;102241.28;5022128;28;19929;-77
2022/04/29 11:54:58;;;;;;;;;;;;;;;12.73;65.59;102241.53;5028697;28;19935;-76
2022/04/29 11:57:26;;;;;;;;;;;;;;;12.97;68.11;102242.06;5039694;28;19928;-78
2022/04/29 11:59:54;;;;;;;;;;;;;;;12.65;65.70;102231.91;5023606;28;19928;-79
2022/04/29 12:02:29;;;;;;;;;;;;;;;12.89;69.49;102228.88;5020846;28;20632;-77
2022/04/29 12:04:58;;;;;;;;;;;;;;;12.82;72.43;102220.88;5028371;28;19928;-77
2022/04/29 12:07:39;;;;;;;;;;;;;;;12.78;71.29;102222.47;5027731;28;19936;-77
2022/04/29 12:10:16;;;;;;;;;;;;;;;12.66;78.47;102210.88;5045393;28;19928;-76
2022/04/29 12:12:49;;;;;;;;;;;;;;;12.77;62.88;102218.09;5026739;28;19929;-79
2022/04/29 12:15:25;;;;;;;;;;;;;;;13.05;63.21;102210.72;5027134;28;19929;-80
2022/04/29 12:18:01;;;;;;;;;;;;;;;13.07;74.68;102203.91;5024156;28;20486;-79
2022/04/29 12:20:29;;;;;;;;;;;;;;;13.25;67.47;102201.88;5026937;28;19935;-79
2022/04/29 12:23:08;;;;;;;;;;;;;;;13.17;61.77;102200.44;5026706;28;20554;-79
2022/04/29 12:25:46;;;;;;;;;;;;;;;13.00;64.77;102199.75;5023604;28;20313;-76
2022/04/29 12:28:16;;;;;;;;;;;;;;;12.95;69.33;102188.75;5042227;28;20475;-77
2022/04/29 12:36:46;;;;;;;;;;;;;;;13.26;64.05;102187.94;5036796;28;19936;-75
2022/04/29 12:39:24;;;;;;;;;;;;;;;12.95;64.36;102177.84;5023558;28;19975;-78
2022/04/29 12:41:58;;;;;;;;;;;;;;;12.70;61.09;102177.31;5029366;28;20549;-78
2022/04/29 12:45:07;;;;;;;;;;;;;;;13.13;61.55;102185.63;5024350;28;19928;-76
2022/04/29 12:47:49;;;;;;;;;;;;;;;13.37;64.35;102177.94;5035638;28;19928;-77
2022/04/29 12:50:24;;;;;;;;;;;;;;;13.54;69.40;102169.56;5027635;28;19935;-77
2022/04/29 12:52:59;;;;;;;;;;;;;;;13.23;69.07;102165.75;5027371;28;20373;-79
2022/04/29 12:55:35;;;;;;;;;;;;;;;13.18;73.19;102161.09;5020293;28;19940;-79
2022/04/29 12:58:09;;;;;;;;;;;;;;;13.30;72.93;102157.34;5025390;28;20316;-79
2022/04/29 13:00:43;;;;;;;;;;;;;;;13.53;73.65;102153.44;5027335;28;20288;-79
2022/04/29 13:03:17;;;;;;;;;;;;;;;13.67;60.49;102153.78;5026607;28;19936;-77
2022/04/29 13:06:15;;;;;;;;;;;;;;;13.64;63.27;102152.41;5027004;28;19931;-78
2022/04/29 13:08:43;;;;;;;;;;;;;;;13.57;62.44;102155.38;5024930;28;19933;-79
2022/04/29 13:11:17;;;;;;;;;;;;;;;13.78;60.22;102150.88;5027300;28;20344;-78
2022/04/29 13:13:51;;;;;;;;;;;;;;;13.89;63.57;102154.47;5028091;28;19924;-78
2022/04/29 13:16:21;;;;;;;;;;;;;;;14.18;65.04;102145.81;5024305;28;19929;-76
2022/04/29 13:18:54;;;;;;;;;;;;;;;13.89;58.56;102135.31;5023261;28;19928;-78
2022/04/29 13:21:29;;;;;;;;;;;;;;;14.20;63.00;102140.91;5020927;28;19939;-78
2022/04/29 13:24:03;;;;;;;;;;;;;;;14.28;64.10;102142.31;5030724;28;19947;-78
2022/04/29 13:26:48;;;;;;;;;;;;;;;13.71;62.59;102135.75;5021087;28;19932;-78
2022/04/29 13:29:20;;;;;;;;;;;;;;;13.92;67.90;102129.31;5026265;28;20458;-78
2022/04/29 13:31:48;;;;;;;;;;;;;;;14.01;65.49;102135.09;5021890;28;19958;-78
2022/04/29 13:34:21;;;;;;;;;;;;;;;13.99;62.83;102134.53;5027852;28;19928;-79
2022/04/29 13:36:55;;;;;;;;;;;;;;;13.86;63.07;102130.34;5022751;28;20393;-78
2022/04/29 13:39:24;;;;;;;;;;;;;;;13.81;66.46;102135.81;5023189;28;19928;-78
2022/04/29 13:42:10;;;;;;;;;;;;;;;13.77;61.71;102121.84;5025042;28;20420;-79
2022/04/29 13:44:43;;;;;;;;;;;;;;;13.76;65.77;102130.31;5028322;28;19928;-78
2022/04/29 13:47:16;;;;;;;;;;;;;;;14.03;58.02;102126.59;5019404;28;21180;-79
2022/04/29 13:49:49;;;;;;;;;;;;;;;14.12;57.64;102130.47;5030167;28;19929;-77
2022/04/29 13:55:14;;;;;;;;;;;;;;;13.82;55.98;102115.56;5017262;28;19928;-78
2022/04/29 13:57:48;;;;;;;;;;;;;;;14.10;55.14;102108.84;5017709;28;19983;-77
2022/04/29 14:00:21;;;;;;;;;;;;;;;14.05;55.18;102103.34;5014099;28;19929;-78
2022/04/29 14:02:54;;;;;;;;;;;;;;;14.49;57.35;102095.81;5017222;28;19936;-77
2022/04/29 14:05:29;;;;;;;;;;;;;;;14.38;51.54;102090.28;5023369;28;20678;-78
2022/04/29 14:08:03;;;;;;;;;;;;;;;14.65;60.28;102094.72;5025458;28;19928;-77
2022/04/29 14:10:33;;;;;;;;;;;;;;;14.63;52.85;102086.78;5031759;28;20511;-77